sensor_id;sensor_type;location;lat;lon;timestamp;P1;durP1;ratioP1;P2;durP2;ratioP2
70138;SDS011;57507;43.056;0.150;2023-11-21T00:00:12;1.75;;;0.65;;
70138;SDS011;57507;43.056;0.150;2023-11-21T00:02:38;2.25;;;0.60;;
70138;SDS011;57507;43.056;0.150;2023-11-21T00:05:06;3.88;;;0.70;;
70138;SDS011;57507;43.056;0.150;2023-11-21T00:07:33;2.97;;;0.73;;
70138;SDS011;57507;43.056;0.150;2023-11-21T00:09:59;4.10;;;0.80;;
70138;SDS011;57507;43.056;0.150;2023-11-21T00:12:25;5.30;;;0.93;;
70138;SDS011;57507;43.056;0.150;2023-11-21T00:14:52;4.35;;;0.70;;
70138;SDS011;57507;43.056;0.150;2023-11-21T00:17:18;3.88;;;0.93;;
70138;SDS011;57507;43.056;0.150;2023-11-21T00:19:44;5.25;;;1.08;;
70138;SDS011;57507;43.056;0.150;2023-11-21T00:22:10;3.20;;;0.50;;
70138;SDS011;57507;43.056;0.150;2023-11-21T00:24:36;3.08;;;0.60;;
70138;SDS011;57507;43.056;0.150;2023-11-21T00:27:03;2.42;;;0.60;;
70138;SDS011;57507;43.056;0.150;2023-11-21T00:29:29;3.35;;;0.75;;
70138;SDS011;57507;43.056;0.150;2023-11-21T00:31:55;3.03;;;0.57;;
70138;SDS011;57507;43.056;0.150;2023-11-21T00:34:21;1.70;;;0.32;;
70138;SDS011;57507;43.056;0.150;2023-11-21T00:36:47;2.08;;;0.43;;
70138;SDS011;57507;43.056;0.150;2023-11-21T00:39:13;4.10;;;0.70;;
70138;SDS011;57507;43.056;0.150;2023-11-21T00:41:39;4.00;;;0.50;;
70138;SDS011;57507;43.056;0.150;2023-11-21T00:44:05;2.33;;;0.50;;
70138;SDS011;57507;43.056;0.150;2023-11-21T00:46:31;3.60;;;0.80;;
70138;SDS011;57507;43.056;0.150;2023-11-21T00:48:57;2.90;;;0.70;;
70138;SDS011;57507;43.056;0.150;2023-11-21T00:51:23;1.27;;;0.60;;
70138;SDS011;57507;43.056;0.150;2023-11-21T00:53:49;1.38;;;0.40;;
70138;SDS011;57507;43.056;0.150;2023-11-21T00:56:16;2.75;;;0.57;;
70138;SDS011;57507;43.056;0.150;2023-11-21T00:58:42;4.20;;;0.60;;
70138;SDS011;57507;43.056;0.150;2023-11-21T01:01:11;3.40;;;0.80;;
70138;SDS011;57507;43.056;0.150;2023-11-21T01:03:37;2.33;;;0.70;;
70138;SDS011;57507;43.056;0.150;2023-11-21T01:06:03;2.65;;;0.45;;
70138;SDS011;57507;43.056;0.150;2023-11-21T01:08:32;1.90;;;0.47;;
70138;SDS011;57507;43.056;0.150;2023-11-21T01:10:58;2.67;;;0.60;;
70138;SDS011;57507;43.056;0.150;2023-11-21T01:13:24;2.42;;;0.77;;
70138;SDS011;57507;43.056;0.150;2023-11-21T01:15:52;1.17;;;0.43;;
70138;SDS011;57507;43.056;0.150;2023-11-21T01:18:18;3.33;;;0.50;;
70138;SDS011;57507;43.056;0.150;2023-11-21T01:20:44;2.58;;;0.60;;
70138;SDS011;57507;43.056;0.150;2023-11-21T01:23:12;2.33;;;0.45;;
70138;SDS011;57507;43.056;0.150;2023-11-21T01:25:38;2.78;;;0.45;;
70138;SDS011;57507;43.056;0.150;2023-11-21T01:28:04;4.22;;;0.60;;
70138;SDS011;57507;43.056;0.150;2023-11-21T01:30:30;6.85;;;0.60;;
70138;SDS011;57507;43.056;0.150;2023-11-21T01:32:57;1.73;;;0.40;;
70138;SDS011;57507;43.056;0.150;2023-11-21T01:35:23;2.50;;;0.60;;
70138;SDS011;57507;43.056;0.150;2023-11-21T01:37:49;2.80;;;0.75;;
70138;SDS011;57507;43.056;0.150;2023-11-21T01:40:16;3.05;;;0.45;;
70138;SDS011;57507;43.056;0.150;2023-11-21T01:42:42;4.43;;;0.70;;
70138;SDS011;57507;43.056;0.150;2023-11-21T01:45:09;2.08;;;0.52;;
70138;SDS011;57507;43.056;0.150;2023-11-21T01:47:35;1.55;;;0.40;;
70138;SDS011;57507;43.056;0.150;2023-11-21T01:50:02;3.13;;;0.60;;
70138;SDS011;57507;43.056;0.150;2023-11-21T01:52:29;1.27;;;0.32;;
70138;SDS011;57507;43.056;0.150;2023-11-21T01:54:56;2.17;;;0.40;;
70138;SDS011;57507;43.056;0.150;2023-11-21T01:57:23;2.40;;;0.40;;
70138;SDS011;57507;43.056;0.150;2023-11-21T01:59:49;1.40;;;0.30;;
70138;SDS011;57507;43.056;0.150;2023-11-21T02:02:16;2.17;;;0.47;;
70138;SDS011;57507;43.056;0.150;2023-11-21T02:04:42;2.60;;;0.38;;
70138;SDS011;57507;43.056;0.150;2023-11-21T02:07:08;1.90;;;0.40;;
70138;SDS011;57507;43.056;0.150;2023-11-21T02:09:35;2.95;;;0.60;;
70138;SDS011;57507;43.056;0.150;2023-11-21T02:12:03;1.02;;;0.40;;
70138;SDS011;57507;43.056;0.150;2023-11-21T02:14:30;2.40;;;0.63;;
70138;SDS011;57507;43.056;0.150;2023-11-21T02:16:57;2.72;;;0.60;;
70138;SDS011;57507;43.056;0.150;2023-11-21T02:19:23;1.35;;;0.43;;
70138;SDS011;57507;43.056;0.150;2023-11-21T02:21:53;2.15;;;0.40;;
70138;SDS011;57507;43.056;0.150;2023-11-21T02:24:23;1.55;;;0.40;;
70138;SDS011;57507;43.056;0.150;2023-11-21T02:26:49;1.20;;;0.30;;
70138;SDS011;57507;43.056;0.150;2023-11-21T02:29:19;3.30;;;0.47;;
70138;SDS011;57507;43.056;0.150;2023-11-21T02:31:47;1.33;;;0.40;;
70138;SDS011;57507;43.056;0.150;2023-11-21T02:34:19;1.40;;;0.40;;
70138;SDS011;57507;43.056;0.150;2023-11-21T02:36:46;1.85;;;0.30;;
70138;SDS011;57507;43.056;0.150;2023-11-21T02:39:14;0.90;;;0.38;;
70138;SDS011;57507;43.056;0.150;2023-11-21T02:41:41;0.75;;;0.30;;
70138;SDS011;57507;43.056;0.150;2023-11-21T02:44:07;1.38;;;0.20;;
70138;SDS011;57507;43.056;0.150;2023-11-21T02:46:35;2.58;;;0.43;;
70138;SDS011;57507;43.056;0.150;2023-11-21T02:49:01;1.48;;;0.30;;
70138;SDS011;57507;43.056;0.150;2023-11-21T02:51:27;0.30;;;0.20;;
70138;SDS011;57507;43.056;0.150;2023-11-21T02:53:54;0.75;;;0.30;;
70138;SDS011;57507;43.056;0.150;2023-11-21T02:56:23;0.50;;;0.20;;
70138;SDS011;57507;43.056;0.150;2023-11-21T02:58:50;2.22;;;0.30;;
70138;SDS011;57507;43.056;0.150;2023-11-21T03:01:16;0.52;;;0.28;;
70138;SDS011;57507;43.056;0.150;2023-11-21T03:03:42;0.85;;;0.30;;
70138;SDS011;57507;43.056;0.150;2023-11-21T03:06:08;1.55;;;0.40;;
70138;SDS011;57507;43.056;0.150;2023-11-21T03:08:34;0.22;;;0.22;;
70138;SDS011;57507;43.056;0.150;2023-11-21T03:11:01;1.52;;;0.28;;
70138;SDS011;57507;43.056;0.150;2023-11-21T03:13:30;0.45;;;0.10;;
70138;SDS011;57507;43.056;0.150;2023-11-21T03:15:56;0.95;;;0.20;;
70138;SDS011;57507;43.056;0.150;2023-11-21T03:18:22;1.52;;;0.30;;
70138;SDS011;57507;43.056;0.150;2023-11-21T03:20:48;0.98;;;0.20;;
70138;SDS011;57507;43.056;0.150;2023-11-21T03:23:14;0.93;;;0.22;;
70138;SDS011;57507;43.056;0.150;2023-11-21T03:25:40;0.57;;;0.32;;
70138;SDS011;57507;43.056;0.150;2023-11-21T03:28:06;1.02;;;0.30;;
70138;SDS011;57507;43.056;0.150;2023-11-21T03:30:33;1.30;;;0.30;;
70138;SDS011;57507;43.056;0.150;2023-11-21T03:32:59;1.67;;;0.20;;
70138;SDS011;57507;43.056;0.150;2023-11-21T03:35:25;0.52;;;0.20;;
70138;SDS011;57507;43.056;0.150;2023-11-21T03:37:52;0.55;;;0.13;;
70138;SDS011;57507;43.056;0.150;2023-11-21T03:40:18;0.47;;;0.25;;
70138;SDS011;57507;43.056;0.150;2023-11-21T03:42:46;0.95;;;0.25;;
70138;SDS011;57507;43.056;0.150;2023-11-21T03:45:12;0.63;;;0.30;;
70138;SDS011;57507;43.056;0.150;2023-11-21T03:47:40;0.40;;;0.20;;
70138;SDS011;57507;43.056;0.150;2023-11-21T03:50:06;0.50;;;0.20;;
70138;SDS011;57507;43.056;0.150;2023-11-21T03:52:33;2.55;;;0.32;;
70138;SDS011;57507;43.056;0.150;2023-11-21T03:55:00;0.43;;;0.30;;
70138;SDS011;57507;43.056;0.150;2023-11-21T03:57:26;0.47;;;0.13;;
70138;SDS011;57507;43.056;0.150;2023-11-21T03:59:52;0.93;;;0.30;;
70138;SDS011;57507;43.056;0.150;2023-11-21T04:02:19;3.03;;;0.77;;
70138;SDS011;57507;43.056;0.150;2023-11-21T04:04:45;0.63;;;0.20;;
70138;SDS011;57507;43.056;0.150;2023-11-21T04:07:11;0.30;;;0.20;;
70138;SDS011;57507;43.056;0.150;2023-11-21T04:09:38;0.63;;;0.30;;
70138;SDS011;57507;43.056;0.150;2023-11-21T04:12:05;0.95;;;0.20;;
70138;SDS011;57507;43.056;0.150;2023-11-21T04:14:32;0.77;;;0.20;;
70138;SDS011;57507;43.056;0.150;2023-11-21T04:16:58;1.98;;;0.38;;
70138;SDS011;57507;43.056;0.150;2023-11-21T04:19:24;0.55;;;0.40;;
70138;SDS011;57507;43.056;0.150;2023-11-21T04:21:50;0.75;;;0.20;;
70138;SDS011;57507;43.056;0.150;2023-11-21T04:24:17;2.33;;;0.38;;
70138;SDS011;57507;43.056;0.150;2023-11-21T04:26:43;1.77;;;0.40;;
70138;SDS011;57507;43.056;0.150;2023-11-21T04:29:09;1.90;;;0.40;;
70138;SDS011;57507;43.056;0.150;2023-11-21T04:31:35;3.20;;;0.70;;
70138;SDS011;57507;43.056;0.150;2023-11-21T04:34:01;1.42;;;0.25;;
70138;SDS011;57507;43.056;0.150;2023-11-21T04:36:29;0.82;;;0.20;;
70138;SDS011;57507;43.056;0.150;2023-11-21T04:38:59;2.83;;;0.50;;
70138;SDS011;57507;43.056;0.150;2023-11-21T04:41:25;0.98;;;0.30;;
70138;SDS011;57507;43.056;0.150;2023-11-21T04:43:52;2.30;;;0.40;;
70138;SDS011;57507;43.056;0.150;2023-11-21T04:46:18;1.40;;;0.25;;
70138;SDS011;57507;43.056;0.150;2023-11-21T04:48:44;1.52;;;0.32;;
70138;SDS011;57507;43.056;0.150;2023-11-21T04:51:10;1.38;;;0.17;;
70138;SDS011;57507;43.056;0.150;2023-11-21T04:53:39;2.45;;;0.40;;
70138;SDS011;57507;43.056;0.150;2023-11-21T04:56:05;0.88;;;0.25;;
70138;SDS011;57507;43.056;0.150;2023-11-21T04:58:31;1.88;;;0.35;;
70138;SDS011;57507;43.056;0.150;2023-11-21T05:00:58;0.52;;;0.20;;
70138;SDS011;57507;43.056;0.150;2023-11-21T05:03:24;1.83;;;0.50;;
70138;SDS011;57507;43.056;0.150;2023-11-21T05:05:51;1.85;;;0.30;;
70138;SDS011;57507;43.056;0.150;2023-11-21T05:08:17;1.95;;;0.28;;
70138;SDS011;57507;43.056;0.150;2023-11-21T05:10:44;0.82;;;0.30;;
70138;SDS011;57507;43.056;0.150;2023-11-21T05:13:10;0.57;;;0.20;;
70138;SDS011;57507;43.056;0.150;2023-11-21T05:15:36;0.85;;;0.30;;
70138;SDS011;57507;43.056;0.150;2023-11-21T05:18:04;0.45;;;0.20;;
70138;SDS011;57507;43.056;0.150;2023-11-21T05:20:30;1.35;;;0.20;;
70138;SDS011;57507;43.056;0.150;2023-11-21T05:22:56;1.60;;;0.20;;
70138;SDS011;57507;43.056;0.150;2023-11-21T05:25:23;0.55;;;0.20;;
70138;SDS011;57507;43.056;0.150;2023-11-21T05:27:49;1.08;;;0.30;;
70138;SDS011;57507;43.056;0.150;2023-11-21T05:30:15;0.30;;;0.10;;
70138;SDS011;57507;43.056;0.150;2023-11-21T05:32:41;0.50;;;0.20;;
70138;SDS011;57507;43.056;0.150;2023-11-21T05:35:08;0.30;;;0.20;;
70138;SDS011;57507;43.056;0.150;2023-11-21T05:37:40;0.38;;;0.10;;
70138;SDS011;57507;43.056;0.150;2023-11-21T05:40:07;1.38;;;0.20;;
70138;SDS011;57507;43.056;0.150;2023-11-21T05:42:33;1.50;;;0.30;;
70138;SDS011;57507;43.056;0.150;2023-11-21T05:44:59;0.52;;;0.20;;
70138;SDS011;57507;43.056;0.150;2023-11-21T05:47:39;0.25;;;0.10;;
70138;SDS011;57507;43.056;0.150;2023-11-21T05:50:05;1.35;;;0.20;;
70138;SDS011;57507;43.056;0.150;2023-11-21T05:52:34;0.10;;;0.10;;
70138;SDS011;57507;43.056;0.150;2023-11-21T05:55:00;0.45;;;0.30;;
70138;SDS011;57507;43.056;0.150;2023-11-21T05:57:26;1.40;;;0.20;;
70138;SDS011;57507;43.056;0.150;2023-11-21T05:59:52;0.25;;;0.10;;
70138;SDS011;57507;43.056;0.150;2023-11-21T06:02:18;1.23;;;0.15;;
70138;SDS011;57507;43.056;0.150;2023-11-21T06:04:44;0.20;;;0.20;;
70138;SDS011;57507;43.056;0.150;2023-11-21T06:07:10;0.57;;;0.20;;
70138;SDS011;57507;43.056;0.150;2023-11-21T06:09:37;1.85;;;0.28;;
70138;SDS011;57507;43.056;0.150;2023-11-21T06:12:03;0.30;;;0.10;;
70138;SDS011;57507;43.056;0.150;2023-11-21T06:14:29;0.45;;;0.10;;
70138;SDS011;57507;43.056;0.150;2023-11-21T06:16:55;0.20;;;0.10;;
70138;SDS011;57507;43.056;0.150;2023-11-21T06:19:22;0.25;;;0.15;;
70138;SDS011;57507;43.056;0.150;2023-11-21T06:21:48;0.20;;;0.10;;
70138;SDS011;57507;43.056;0.150;2023-11-21T06:24:14;0.20;;;0.20;;
70138;SDS011;57507;43.056;0.150;2023-11-21T06:26:40;0.10;;;0.10;;
70138;SDS011;57507;43.056;0.150;2023-11-21T06:29:06;0.08;;;0.08;;
70138;SDS011;57507;43.056;0.150;2023-11-21T06:31:32;0.20;;;0.20;;
70138;SDS011;57507;43.056;0.150;2023-11-21T06:33:58;0.15;;;0.15;;
70138;SDS011;57507;43.056;0.150;2023-11-21T06:36:25;1.17;;;0.10;;
70138;SDS011;57507;43.056;0.150;2023-11-21T06:38:51;0.20;;;0.10;;
70138;SDS011;57507;43.056;0.150;2023-11-21T06:41:17;0.90;;;0.10;;
70138;SDS011;57507;43.056;0.150;2023-11-21T06:43:43;0.25;;;0.25;;
70138;SDS011;57507;43.056;0.150;2023-11-21T06:46:11;0.20;;;0.10;;
70138;SDS011;57507;43.056;0.150;2023-11-21T06:48:39;0.20;;;0.20;;
70138;SDS011;57507;43.056;0.150;2023-11-21T06:51:06;0.10;;;0.10;;
70138;SDS011;57507;43.056;0.150;2023-11-21T06:53:32;0.20;;;0.20;;
70138;SDS011;57507;43.056;0.150;2023-11-21T06:55:58;0.10;;;0.10;;
70138;SDS011;57507;43.056;0.150;2023-11-21T06:58:24;0.10;;;0.10;;
70138;SDS011;57507;43.056;0.150;2023-11-21T07:00:50;0.10;;;0.10;;
70138;SDS011;57507;43.056;0.150;2023-11-21T07:03:17;0.10;;;0.10;;
70138;SDS011;57507;43.056;0.150;2023-11-21T07:05:44;0.10;;;0.10;;
70138;SDS011;57507;43.056;0.150;2023-11-21T07:08:10;0.45;;;0.10;;
70138;SDS011;57507;43.056;0.150;2023-11-21T07:10:37;0.10;;;0.10;;
70138;SDS011;57507;43.056;0.150;2023-11-21T07:13:03;0.20;;;0.20;;
70138;SDS011;57507;43.056;0.150;2023-11-21T07:15:29;0.28;;;0.13;;
70138;SDS011;57507;43.056;0.150;2023-11-21T07:17:55;0.10;;;0.10;;
70138;SDS011;57507;43.056;0.150;2023-11-21T07:20:22;1.20;;;0.10;;
70138;SDS011;57507;43.056;0.150;2023-11-21T07:22:48;0.20;;;0.10;;
70138;SDS011;57507;43.056;0.150;2023-11-21T07:25:14;0.10;;;0.10;;
70138;SDS011;57507;43.056;0.150;2023-11-21T07:27:41;0.10;;;0.10;;
70138;SDS011;57507;43.056;0.150;2023-11-21T07:30:07;0.10;;;0.10;;
70138;SDS011;57507;43.056;0.150;2023-11-21T07:32:34;0.30;;;0.10;;
70138;SDS011;57507;43.056;0.150;2023-11-21T07:35:00;0.10;;;0.10;;
70138;SDS011;57507;43.056;0.150;2023-11-21T07:37:27;0.10;;;0.10;;
70138;SDS011;57507;43.056;0.150;2023-11-21T07:39:53;0.32;;;0.10;;
70138;SDS011;57507;43.056;0.150;2023-11-21T07:42:22;0.25;;;0.10;;
70138;SDS011;57507;43.056;0.150;2023-11-21T07:44:48;0.08;;;0.08;;
70138;SDS011;57507;43.056;0.150;2023-11-21T07:47:15;0.22;;;0.10;;
70138;SDS011;57507;43.056;0.150;2023-11-21T07:49:41;0.00;;;0.00;;
70138;SDS011;57507;43.056;0.150;2023-11-21T07:52:09;0.22;;;0.10;;
70138;SDS011;57507;43.056;0.150;2023-11-21T07:54:35;0.38;;;0.13;;
70138;SDS011;57507;43.056;0.150;2023-11-21T07:57:01;0.10;;;0.10;;
70138;SDS011;57507;43.056;0.150;2023-11-21T07:59:29;0.10;;;0.10;;
70138;SDS011;57507;43.056;0.150;2023-11-21T08:01:55;0.10;;;0.00;;
70138;SDS011;57507;43.056;0.150;2023-11-21T08:04:21;0.65;;;0.10;;
70138;SDS011;57507;43.056;0.150;2023-11-21T08:06:48;0.55;;;0.15;;
70138;SDS011;57507;43.056;0.150;2023-11-21T08:09:14;0.10;;;0.10;;
70138;SDS011;57507;43.056;0.150;2023-11-21T08:11:42;0.52;;;0.10;;
70138;SDS011;57507;43.056;0.150;2023-11-21T08:14:08;0.35;;;0.20;;
70138;SDS011;57507;43.056;0.150;2023-11-21T08:16:34;0.20;;;0.20;;
70138;SDS011;57507;43.056;0.150;2023-11-21T08:19:00;0.20;;;0.20;;
70138;SDS011;57507;43.056;0.150;2023-11-21T08:21:27;0.35;;;0.13;;
70138;SDS011;57507;43.056;0.150;2023-11-21T08:23:54;0.73;;;0.10;;
70138;SDS011;57507;43.056;0.150;2023-11-21T08:26:22;0.10;;;0.10;;
70138;SDS011;57507;43.056;0.150;2023-11-21T08:28:49;0.32;;;0.10;;
70138;SDS011;57507;43.056;0.150;2023-11-21T08:31:17;1.42;;;0.13;;
70138;SDS011;57507;43.056;0.150;2023-11-21T08:33:43;0.20;;;0.20;;
70138;SDS011;57507;43.056;0.150;2023-11-21T08:36:09;0.30;;;0.30;;
70138;SDS011;57507;43.056;0.150;2023-11-21T08:38:38;0.80;;;0.20;;
70138;SDS011;57507;43.056;0.150;2023-11-21T08:41:05;0.13;;;0.13;;
70138;SDS011;57507;43.056;0.150;2023-11-21T08:43:33;0.10;;;0.10;;
70138;SDS011;57507;43.056;0.150;2023-11-21T08:45:59;0.10;;;0.10;;
70138;SDS011;57507;43.056;0.150;2023-11-21T08:48:25;0.10;;;0.10;;
70138;SDS011;57507;43.056;0.150;2023-11-21T08:50:53;1.08;;;0.30;;
70138;SDS011;57507;43.056;0.150;2023-11-21T08:53:19;0.32;;;0.13;;
70138;SDS011;57507;43.056;0.150;2023-11-21T08:55:45;0.20;;;0.20;;
70138;SDS011;57507;43.056;0.150;2023-11-21T08:58:11;1.77;;;0.32;;
70138;SDS011;57507;43.056;0.150;2023-11-21T09:00:37;0.20;;;0.20;;
70138;SDS011;57507;43.056;0.150;2023-11-21T09:03:05;0.10;;;0.10;;
70138;SDS011;57507;43.056;0.150;2023-11-21T09:05:33;1.20;;;0.10;;
70138;SDS011;57507;43.056;0.150;2023-11-21T09:07:59;0.20;;;0.20;;
70138;SDS011;57507;43.056;0.150;2023-11-21T09:10:26;0.10;;;0.10;;
70138;SDS011;57507;43.056;0.150;2023-11-21T09:12:53;0.90;;;0.10;;
70138;SDS011;57507;43.056;0.150;2023-11-21T09:15:19;0.30;;;0.30;;
70138;SDS011;57507;43.056;0.150;2023-11-21T09:17:45;0.10;;;0.10;;
70138;SDS011;57507;43.056;0.150;2023-11-21T09:20:11;0.95;;;0.45;;
70138;SDS011;57507;43.056;0.150;2023-11-21T09:22:39;2.58;;;0.55;;
70138;SDS011;57507;43.056;0.150;2023-11-21T09:25:06;1.58;;;0.30;;
70138;SDS011;57507;43.056;0.150;2023-11-21T09:27:33;0.25;;;0.10;;
70138;SDS011;57507;43.056;0.150;2023-11-21T09:30:00;0.85;;;0.10;;
70138;SDS011;57507;43.056;0.150;2023-11-21T09:32:27;0.10;;;0.10;;
70138;SDS011;57507;43.056;0.150;2023-11-21T09:34:53;0.00;;;0.00;;
70138;SDS011;57507;43.056;0.150;2023-11-21T09:37:23;0.55;;;0.10;;
70138;SDS011;57507;43.056;0.150;2023-11-21T09:39:49;0.10;;;0.10;;
70138;SDS011;57507;43.056;0.150;2023-11-21T09:45:03;0.10;;;0.10;;
70138;SDS011;57507;43.056;0.150;2023-11-21T09:47:32;0.28;;;0.10;;
70138;SDS011;57507;43.056;0.150;2023-11-21T09:50:01;0.45;;;0.35;;
70138;SDS011;57507;43.056;0.150;2023-11-21T09:52:27;0.10;;;0.10;;
70138;SDS011;57507;43.056;0.150;2023-11-21T09:54:54;0.17;;;0.13;;
70138;SDS011;57507;43.056;0.150;2023-11-21T09:57:24;0.28;;;0.22;;
70138;SDS011;57507;43.056;0.150;2023-11-21T09:59:50;0.20;;;0.20;;
70138;SDS011;57507;43.056;0.150;2023-11-21T10:02:20;2.67;;;0.77;;
70138;SDS011;57507;43.056;0.150;2023-11-21T10:04:47;1.40;;;0.40;;
70138;SDS011;57507;43.056;0.150;2023-11-21T10:07:13;0.20;;;0.20;;
70138;SDS011;57507;43.056;0.150;2023-11-21T10:09:42;0.17;;;0.13;;
70138;SDS011;57507;43.056;0.150;2023-11-21T10:12:08;1.08;;;0.20;;
70138;SDS011;57507;43.056;0.150;2023-11-21T10:14:37;0.20;;;0.10;;
70138;SDS011;57507;43.056;0.150;2023-11-21T10:17:03;0.10;;;0.10;;
70138;SDS011;57507;43.056;0.150;2023-11-21T10:19:30;0.10;;;0.10;;
70138;SDS011;57507;43.056;0.150;2023-11-21T10:21:57;0.10;;;0.10;;
70138;SDS011;57507;43.056;0.150;2023-11-21T10:24:24;0.30;;;0.10;;
70138;SDS011;57507;43.056;0.150;2023-11-21T10:26:50;0.30;;;0.10;;
70138;SDS011;57507;43.056;0.150;2023-11-21T10:29:18;0.20;;;0.10;;
70138;SDS011;57507;43.056;0.150;2023-11-21T10:31:48;0.10;;;0.10;;
70138;SDS011;57507;43.056;0.150;2023-11-21T10:34:15;0.20;;;0.10;;
70138;SDS011;57507;43.056;0.150;2023-11-21T10:36:41;0.13;;;0.10;;
70138;SDS011;57507;43.056;0.150;2023-11-21T10:39:07;0.25;;;0.10;;
70138;SDS011;57507;43.056;0.150;2023-11-21T10:41:35;0.90;;;0.15;;
70138;SDS011;57507;43.056;0.150;2023-11-21T10:44:01;0.20;;;0.20;;
70138;SDS011;57507;43.056;0.150;2023-11-21T10:46:32;0.10;;;0.10;;
70138;SDS011;57507;43.056;0.150;2023-11-21T10:49:00;0.20;;;0.10;;
70138;SDS011;57507;43.056;0.150;2023-11-21T10:51:27;0.20;;;0.20;;
70138;SDS011;57507;43.056;0.150;2023-11-21T10:53:53;0.10;;;0.10;;
70138;SDS011;57507;43.056;0.150;2023-11-21T10:56:19;0.30;;;0.30;;
70138;SDS011;57507;43.056;0.150;2023-11-21T10:58:49;0.20;;;0.20;;
70138;SDS011;57507;43.056;0.150;2023-11-21T11:01:19;0.17;;;0.17;;
70138;SDS011;57507;43.056;0.150;2023-11-21T11:03:49;0.75;;;0.15;;
70138;SDS011;57507;43.056;0.150;2023-11-21T11:06:16;0.20;;;0.20;;
70138;SDS011;57507;43.056;0.150;2023-11-21T11:08:42;0.30;;;0.30;;
70138;SDS011;57507;43.056;0.150;2023-11-21T11:11:09;1.27;;;0.30;;
70138;SDS011;57507;43.056;0.150;2023-11-21T11:13:35;0.68;;;0.40;;
70138;SDS011;57507;43.056;0.150;2023-11-21T11:16:03;0.93;;;0.38;;
70138;SDS011;57507;43.056;0.150;2023-11-21T11:18:32;2.90;;;0.50;;
70138;SDS011;57507;43.056;0.150;2023-11-21T11:21:07;2.72;;;0.85;;
70138;SDS011;57507;43.056;0.150;2023-11-21T11:31:40;0.43;;;0.43;;
70138;SDS011;57507;43.056;0.150;2023-11-21T11:37:00;1.02;;;0.30;;
70138;SDS011;57507;43.056;0.150;2023-11-21T11:41:55;0.40;;;0.40;;
70138;SDS011;57507;43.056;0.150;2023-11-21T11:47:17;1.58;;;0.30;;
70138;SDS011;57507;43.056;0.150;2023-11-21T11:55:04;1.60;;;0.80;;
70138;SDS011;57507;43.056;0.150;2023-11-21T11:57:30;0.60;;;0.60;;
70138;SDS011;57507;43.056;0.150;2023-11-21T12:02:41;1.90;;;0.50;;
70138;SDS011;57507;43.056;0.150;2023-11-21T12:05:11;2.47;;;0.60;;
70138;SDS011;57507;43.056;0.150;2023-11-21T12:07:48;1.80;;;0.50;;
70138;SDS011;57507;43.056;0.150;2023-11-21T12:10:17;0.68;;;0.40;;
70138;SDS011;57507;43.056;0.150;2023-11-21T12:12:48;1.55;;;0.30;;
70138;SDS011;57507;43.056;0.150;2023-11-21T12:15:14;3.17;;;0.63;;
70138;SDS011;57507;43.056;0.150;2023-11-21T12:17:43;1.90;;;0.60;;
70138;SDS011;57507;43.056;0.150;2023-11-21T12:20:10;0.40;;;0.40;;
70138;SDS011;57507;43.056;0.150;2023-11-21T12:22:58;0.90;;;0.50;;
70138;SDS011;57507;43.056;0.150;2023-11-21T12:25:25;0.65;;;0.40;;
70138;SDS011;57507;43.056;0.150;2023-11-21T12:27:54;0.30;;;0.30;;
70138;SDS011;57507;43.056;0.150;2023-11-21T12:30:22;0.50;;;0.30;;
70138;SDS011;57507;43.056;0.150;2023-11-21T12:32:49;0.70;;;0.32;;
70138;SDS011;57507;43.056;0.150;2023-11-21T12:35:19;0.98;;;0.50;;
70138;SDS011;57507;43.056;0.150;2023-11-21T12:37:46;0.40;;;0.32;;
70138;SDS011;57507;43.056;0.150;2023-11-21T12:40:13;1.05;;;0.40;;
70138;SDS011;57507;43.056;0.150;2023-11-21T12:42:42;1.63;;;0.60;;
70138;SDS011;57507;43.056;0.150;2023-11-21T12:45:10;3.58;;;1.17;;
70138;SDS011;57507;43.056;0.150;2023-11-21T12:47:40;0.88;;;0.50;;
70138;SDS011;57507;43.056;0.150;2023-11-21T12:50:06;0.55;;;0.40;;
70138;SDS011;57507;43.056;0.150;2023-11-21T12:52:39;0.32;;;0.32;;
70138;SDS011;57507;43.056;0.150;2023-11-21T12:55:05;1.02;;;0.38;;
70138;SDS011;57507;43.056;0.150;2023-11-21T12:57:33;1.27;;;0.60;;
70138;SDS011;57507;43.056;0.150;2023-11-21T12:59:59;0.90;;;0.60;;
70138;SDS011;57507;43.056;0.150;2023-11-21T13:02:36;1.10;;;0.50;;
70138;SDS011;57507;43.056;0.150;2023-11-21T13:05:03;2.35;;;0.50;;
70138;SDS011;57507;43.056;0.150;2023-11-21T13:07:43;0.47;;;0.38;;
70138;SDS011;57507;43.056;0.150;2023-11-21T13:10:12;0.88;;;0.40;;
70138;SDS011;57507;43.056;0.150;2023-11-21T13:12:44;0.60;;;0.30;;
70138;SDS011;57507;43.056;0.150;2023-11-21T13:15:16;1.02;;;0.50;;
70138;SDS011;57507;43.056;0.150;2023-11-21T13:17:45;0.73;;;0.40;;
70138;SDS011;57507;43.056;0.150;2023-11-21T13:20:12;0.95;;;0.52;;
70138;SDS011;57507;43.056;0.150;2023-11-21T13:22:45;0.95;;;0.40;;
70138;SDS011;57507;43.056;0.150;2023-11-21T13:25:11;0.63;;;0.50;;
70138;SDS011;57507;43.056;0.150;2023-11-21T13:27:39;0.38;;;0.28;;
70138;SDS011;57507;43.056;0.150;2023-11-21T13:30:08;0.40;;;0.40;;
70138;SDS011;57507;43.056;0.150;2023-11-21T13:32:34;0.80;;;0.50;;
70138;SDS011;57507;43.056;0.150;2023-11-21T13:35:00;1.80;;;0.50;;
70138;SDS011;57507;43.056;0.150;2023-11-21T13:37:26;0.95;;;0.30;;
70138;SDS011;57507;43.056;0.150;2023-11-21T13:39:53;1.40;;;0.40;;
70138;SDS011;57507;43.056;0.150;2023-11-21T13:42:21;0.85;;;0.40;;
70138;SDS011;57507;43.056;0.150;2023-11-21T13:44:55;0.57;;;0.50;;
70138;SDS011;57507;43.056;0.150;2023-11-21T13:47:21;0.73;;;0.40;;
70138;SDS011;57507;43.056;0.150;2023-11-21T13:49:50;0.50;;;0.30;;
70138;SDS011;57507;43.056;0.150;2023-11-21T13:52:16;0.50;;;0.50;;
70138;SDS011;57507;43.056;0.150;2023-11-21T13:54:45;1.02;;;0.40;;
70138;SDS011;57507;43.056;0.150;2023-11-21T13:57:12;1.73;;;0.40;;
70138;SDS011;57507;43.056;0.150;2023-11-21T13:59:38;0.88;;;0.38;;
70138;SDS011;57507;43.056;0.150;2023-11-21T14:02:04;0.35;;;0.35;;
70138;SDS011;57507;43.056;0.150;2023-11-21T14:04:53;0.20;;;0.20;;
70138;SDS011;57507;43.056;0.150;2023-11-21T14:07:21;3.85;;;0.70;;
70138;SDS011;57507;43.056;0.150;2023-11-21T14:09:55;0.93;;;0.40;;
70138;SDS011;57507;43.056;0.150;2023-11-21T14:12:23;0.77;;;0.50;;
70138;SDS011;57507;43.056;0.150;2023-11-21T14:14:49;1.58;;;0.68;;
70138;SDS011;57507;43.056;0.150;2023-11-21T14:17:15;0.40;;;0.30;;
70138;SDS011;57507;43.056;0.150;2023-11-21T14:19:41;1.05;;;0.40;;
70138;SDS011;57507;43.056;0.150;2023-11-21T14:22:11;1.98;;;0.65;;
70138;SDS011;57507;43.056;0.150;2023-11-21T14:24:37;1.55;;;0.30;;
70138;SDS011;57507;43.056;0.150;2023-11-21T14:27:09;2.70;;;0.45;;
70138;SDS011;57507;43.056;0.150;2023-11-21T14:29:35;0.70;;;0.60;;
70138;SDS011;57507;43.056;0.150;2023-11-21T14:32:04;1.60;;;0.75;;
70138;SDS011;57507;43.056;0.150;2023-11-21T14:34:30;1.10;;;0.45;;
70138;SDS011;57507;43.056;0.150;2023-11-21T14:36:56;0.68;;;0.40;;
70138;SDS011;57507;43.056;0.150;2023-11-21T14:39:23;0.32;;;0.32;;
70138;SDS011;57507;43.056;0.150;2023-11-21T14:41:52;2.35;;;0.38;;
70138;SDS011;57507;43.056;0.150;2023-11-21T14:44:20;3.50;;;0.40;;
70138;SDS011;57507;43.056;0.150;2023-11-21T14:46:51;0.73;;;0.32;;
70138;SDS011;57507;43.056;0.150;2023-11-21T14:49:18;0.28;;;0.22;;
70138;SDS011;57507;43.056;0.150;2023-11-21T14:51:48;0.50;;;0.32;;
70138;SDS011;57507;43.056;0.150;2023-11-21T14:54:33;0.38;;;0.32;;
70138;SDS011;57507;43.056;0.150;2023-11-21T14:57:06;1.55;;;0.45;;
70138;SDS011;57507;43.056;0.150;2023-11-21T14:59:35;1.77;;;0.50;;
70138;SDS011;57507;43.056;0.150;2023-11-21T15:02:02;0.25;;;0.20;;
70138;SDS011;57507;43.056;0.150;2023-11-21T15:04:40;0.52;;;0.25;;
70138;SDS011;57507;43.056;0.150;2023-11-21T15:07:07;1.75;;;0.30;;
70138;SDS011;57507;43.056;0.150;2023-11-21T15:09:33;0.40;;;0.40;;
70138;SDS011;57507;43.056;0.150;2023-11-21T15:12:06;0.28;;;0.20;;
70138;SDS011;57507;43.056;0.150;2023-11-21T15:14:45;1.63;;;0.55;;